Time;durP1;ratioP1;P1;durP2;ratioP2;P2;SDS_P1;SDS_P2;PMS_P1;PMS_P2;Temp;Humidity;BMP_temperature;BMP_pressure;BME280_temperature;BME280_humidity;BME280_pressure;Samples;Min_cycle;Max_cycle;Signal;HPM_P1;HPM_P2
2022/02/09 00:04:28;;;;;;;26.60;18.90;;;;;;;-0.35;69.90;97983.20;110547;1244;69353;-67
2022/02/09 00:09:27;;;;;;;29.70;19.20;;;;;;;-0.41;69.80;97991.19;110520;1245;60494;-67
2022/02/09 00:14:50;;;;;;;29.80;19.40;;;;;;;-0.47;69.81;98003.62;110526;1246;68722;-70
2022/02/09 00:20:19;;;;;;;25.30;16.20;;;;;;;-0.52;71.26;98015.35;110483;1244;60496;-68
2022/02/09 00:32:10;;;;;;;26.00;16.30;;;;;;;-0.58;71.13;98011.55;110196;1247;68644;-67
2022/02/09 00:37:28;;;;;;;19.90;13.00;;;;;;;-0.58;71.23;98002.64;110225;1247;60466;-67
2022/02/09 00:42:42;;;;;;;18.20;10.80;;;;;;;-0.55;70.51;98007.90;110569;1245;67815;-69
2022/02/09 01:38:34;;;;;;;16.00;10.00;;;;;;;-0.37;69.67;97980.31;110265;1245;68594;-67
2022/02/09 01:42:07;;;;;;;26.10;16.20;;;;;;;-0.37;70.31;97981.86;110197;1247;68886;-67
2022/02/09 01:55:26;;;;;;;27.30;16.90;;;;;;;-0.43;70.14;97971.35;110468;1246;69520;-67
2022/02/09 01:57:57;;;;;;;24.50;14.40;;;;;;;-0.45;70.15;97980.65;110536;1245;60415;-67
2022/02/09 02:00:27;;;;;;;19.20;13.20;;;;;;;-0.47;70.29;97979.33;110474;1244;60541;-67
2022/02/09 02:03:00;;;;;;;17.80;11.20;;;;;;;-0.49;70.42;97975.77;110531;1244;72321;-67
2022/02/09 02:05:30;;;;;;;23.70;12.60;;;;;;;-0.50;70.49;97968.77;110558;1244;68605;-69
2022/02/09 02:08:01;;;;;;;23.80;14.70;;;;;;;-0.49;70.36;97976.63;110291;1244;69500;-67
2022/02/09 02:10:56;;;;;;;20.20;13.00;;;;;;;-0.52;70.59;97978.02;110245;1247;60535;-67
2022/02/09 02:13:54;;;;;;;20.60;14.30;;;;;;;-0.51;70.75;97977.51;110186;1247;60503;-68
2022/02/09 02:16:32;;;;;;;18.80;12.20;;;;;;;-0.54;70.64;97973.44;110226;1246;72286;-67
2022/02/09 02:19:08;;;;;;;22.90;15.50;;;;;;;-0.55;70.57;97972.80;110251;1247;68614;-67
2022/02/09 02:27:21;;;;;;;18.70;12.70;;;;;;;-0.58;71.76;97968.40;110360;1247;60437;-68
2022/02/09 02:33:17;;;;;;;20.40;13.40;;;;;;;-0.55;71.20;97966.98;110573;1244;68480;-68
2022/02/09 03:13:50;;;;;;;17.80;10.90;;;;;;;-0.57;71.68;98005.69;110258;1247;67704;-66
2022/02/09 03:16:33;;;;;;;22.80;12.50;;;;;;;-0.55;71.71;98012.69;110420;1246;68531;-67
2022/02/09 03:24:31;;;;;;;13.00;8.90;;;;;;;-0.50;72.15;98023.55;110209;1247;72589;-68
2022/02/09 03:54:57;;;;;;;21.20;13.50;;;;;;;-0.55;74.87;98033.76;110254;1247;67516;-68
2022/02/09 03:57:31;;;;;;;20.70;14.60;;;;;;;-0.55;74.26;98036.66;110503;1245;68603;-68
2022/02/09 04:00:00;;;;;;;20.20;13.40;;;;;;;-0.52;73.54;98050.64;110472;1244;60475;-68
2022/02/09 04:02:30;;;;;;;15.60;10.80;;;;;;;-0.49;73.30;98048.54;110508;1246;60545;-67
2022/02/09 04:04:59;;;;;;;20.00;12.10;;;;;;;-0.45;72.68;98048.64;110456;1245;72669;-67
2022/02/09 04:07:28;;;;;;;15.60;9.80;;;;;;;-0.44;72.74;98046.05;110477;1245;67940;-66
2022/02/09 04:10:00;;;;;;;13.90;9.40;;;;;;;-0.43;72.89;98046.54;110536;1246;68721;-67
2022/02/09 04:12:48;;;;;;;15.90;9.90;;;;;;;-0.42;72.38;98044.45;110213;1246;60430;-67
2022/02/09 04:15:45;;;;;;;18.30;10.70;;;;;;;-0.41;72.31;98048.58;110537;1245;60465;-69
2022/02/09 04:40:54;;;;;;;12.40;9.10;;;;;;;-0.49;73.65;98051.27;110153;1246;60550;-68
2022/02/09 04:51:21;;;;;;;19.80;12.50;;;;;;;-0.48;74.26;98054.17;110249;1246;68447;-67
2022/02/09 05:02:30;;;;;;;12.00;8.60;;;;;;;-0.49;73.90;98050.42;110175;1247;67810;-67
2022/02/09 05:26:42;;;;;;;18.10;15.10;;;;;;;-0.38;72.68;98093.71;110237;1247;71892;-67
2022/02/09 05:29:11;;;;;;;21.80;14.30;;;;;;;-0.39;72.91;98095.96;110237;1247;67631;-67
2022/02/09 05:31:40;;;;;;;36.40;20.50;;;;;;;-0.39;73.13;98104.36;110390;1246;68650;-68
2022/02/09 05:34:09;;;;;;;35.30;18.10;;;;;;;-0.41;73.03;98106.95;110435;1247;60485;-68
2022/02/09 05:36:39;;;;;;;29.80;17.20;;;;;;;-0.40;73.01;98113.46;110570;1245;60386;-68
2022/02/09 05:39:09;;;;;;;28.80;16.70;;;;;;;-0.41;74.48;98113.48;110400;1246;71521;-67
2022/02/09 05:41:44;;;;;;;22.30;13.40;;;;;;;-0.40;73.63;98114.99;110233;1247;66988;-69
2022/02/09 05:44:14;;;;;;;23.10;13.30;;;;;;;-0.39;73.73;98119.94;110216;1247;68480;-67
2022/02/09 05:49:37;;;;;;;12.40;7.80;;;;;;;-0.36;73.39;98121.08;110316;1247;60556;-68
2022/02/09 05:52:21;;;;;;;27.50;17.40;;;;;;;-0.34;73.14;98115.03;110339;1247;71762;-71
2022/02/09 05:59:50;;;;;;;31.30;22.60;;;;;;;-0.30;73.93;98131.61;110300;1247;60456;-67
2022/02/09 06:02:19;;;;;;;36.70;25.50;;;;;;;-0.30;73.18;98146.84;110293;1246;60488;-68
2022/02/09 06:04:48;;;;;;;30.30;21.20;;;;;;;-0.31;74.51;98155.61;110278;1246;72906;-67
2022/02/09 06:07:20;;;;;;;28.80;19.20;;;;;;;-0.33;74.63;98161.29;110370;1247;68159;-66
2022/02/09 06:09:50;;;;;;;23.40;15.60;;;;;;;-0.36;75.66;98163.73;110148;1247;69527;-67
2022/02/09 06:12:26;;;;;;;20.40;13.60;;;;;;;-0.37;75.35;98162.20;110374;1247;60427;-68
2022/02/09 06:20:32;;;;;;;30.50;19.90;;;;;;;-0.39;75.56;98143.92;110171;1247;68615;-67
2022/02/09 06:23:07;;;;;;;28.80;18.70;;;;;;;-0.38;75.29;98157.60;110271;1246;69563;-68
2022/02/09 06:25:41;;;;;;;36.70;24.70;;;;;;;-0.35;74.58;98159.27;110363;1246;60456;-67
2022/02/09 06:28:09;;;;;;;35.20;22.70;;;;;;;-0.34;75.70;98154.60;110468;1245;60536;-67
2022/02/09 06:30:38;;;;;;;32.50;22.20;;;;;;;-0.31;75.03;98147.55;110432;1246;72457;-68
2022/02/09 06:33:08;;;;;;;33.70;21.00;;;;;;;-0.29;74.61;98153.33;110397;1247;67806;-68
2022/02/09 06:35:37;;;;;;;46.80;30.90;;;;;;;-0.26;74.41;98158.41;110495;1246;68681;-67
2022/02/09 06:38:06;;;;;;;47.60;29.00;;;;;;;-0.25;75.52;98156.16;110173;1247;60473;-69
2022/02/09 06:40:42;;;;;;;53.80;32.10;;;;;;;-0.24;76.01;98148.27;110519;1245;60434;-67
2022/02/09 06:43:13;;;;;;;39.10;23.60;;;;;;;-0.22;75.65;98162.11;110460;1246;72325;-67
2022/02/09 06:45:43;;;;;;;30.50;19.90;;;;;;;-0.17;74.55;98170.77;110492;1247;67653;-67
2022/02/09 06:48:14;;;;;;;40.20;25.10;;;;;;;-0.16;75.20;98171.25;110548;1244;70034;-67
2022/02/09 06:50:49;;;;;;;26.80;16.50;;;;;;;-0.22;75.72;98179.59;110531;1246;60544;-67
2022/02/09 06:55:59;;;;;;;19.00;12.20;;;;;;;-0.15;74.41;98175.16;110508;1245;72264;-66
2022/02/09 07:01:05;;;;;;;21.80;13.10;;;;;;;-0.16;74.88;98183.60;110050;1246;524209;-69
2022/02/09 07:03:35;;;;;;;14.90;10.50;;;;;;;-0.19;74.74;98184.34;110356;1246;60482;-68
2022/02/09 07:06:06;;;;;;;17.30;11.00;;;;;;;-0.13;74.22;98174.47;110293;1246;60568;-67
2022/02/09 07:08:35;;;;;;;18.70;11.10;;;;;;;-0.08;74.08;98193.91;110371;1244;71594;-67
2022/02/09 07:11:05;;;;;;;14.70;9.40;;;;;;;-0.06;74.07;98205.16;110293;1247;68985;-67
2022/02/09 07:13:33;;;;;;;21.80;13.20;;;;;;;-0.01;73.86;98209.20;110364;1245;69398;-67
2022/02/09 07:16:05;;;;;;;15.60;9.40;;;;;;;-0.00;74.28;98209.20;110184;1247;60521;-67
2022/02/09 07:18:36;;;;;;;16.30;10.50;;;;;;;0.03;73.67;98209.64;110514;1245;60468;-67
2022/02/09 07:21:07;;;;;;;18.40;11.60;;;;;;;0.06;73.59;98212.01;110260;1247;72085;-67
2022/02/09 07:23:49;;;;;;;26.40;15.80;;;;;;;0.06;73.77;98214.58;110302;1246;69375;-68
2022/02/09 07:26:28;;;;;;;26.30;15.70;;;;;;;0.06;74.17;98217.15;110544;1244;68613;-67
2022/02/09 07:28:59;;;;;;;17.60;11.80;;;;;;;0.07;74.22;98216.59;110427;1244;60417;-67
2022/02/09 07:31:28;;;;;;;28.10;16.90;;;;;;;0.12;73.67;98212.23;110280;1247;60542;-66
2022/02/09 07:33:59;;;;;;;19.90;13.20;;;;;;;0.13;74.06;98213.91;110510;1246;71673;-67
2022/02/09 07:36:31;;;;;;;25.00;16.50;;;;;;;0.20;73.43;98205.39;110410;1246;67902;-68
2022/02/09 07:39:02;;;;;;;42.40;27.60;;;;;;;0.25;73.48;98205.65;110396;1247;69346;-67
2022/02/09 07:41:33;;;;;;;50.80;33.50;;;;;;;0.26;73.67;98202.02;110511;1247;60468;-68
2022/02/09 07:46:55;;;;;;;37.90;26.40;;;;;;;0.28;73.64;98209.19;110422;1246;73137;-68
2022/02/09 07:49:49;;;;;;;35.60;24.70;;;;;;;0.27;73.41;98219.30;110463;1246;68900;-66
2022/02/09 07:52:22;;;;;;;37.30;25.40;;;;;;;0.28;73.69;98220.68;110104;1247;69450;-70
2022/02/09 07:54:54;;;;;;;38.50;25.60;;;;;;;0.29;73.36;98220.66;110348;1244;60474;-70
2022/02/09 07:57:23;;;;;;;38.30;20.80;;;;;;;0.29;73.37;98219.81;110560;1244;60541;-70
2022/02/09 07:59:51;;;;;;;30.60;20.00;;;;;;;0.30;73.67;98215.65;110530;1244;72326;-68
2022/02/09 08:02:21;;;;;;;46.40;28.50;;;;;;;0.30;73.73;98223.73;110491;1244;66940;-67
2022/02/09 08:04:50;;;;;;;30.40;22.20;;;;;;;0.32;74.05;98230.89;110280;1246;68800;-67
2022/02/09 08:07:19;;;;;;;35.40;22.20;;;;;;;0.36;73.83;98235.26;110561;1244;60784;-68
2022/02/09 08:09:48;;;;;;;37.00;22.20;;;;;;;0.29;75.52;98241.73;110614;1244;60479;-66
2022/02/09 08:26:37;;;;;;;19.10;14.60;;;;;;;0.45;74.86;98259.97;110305;1247;72422;-70
2022/02/09 08:34:48;;;;;;;34.40;18.40;;;;;;;0.68;73.46;98259.86;110209;1244;60631;-70
2022/02/09 08:37:25;;;;;;;45.40;27.70;;;;;;;0.72;73.36;98262.86;110077;1247;60497;-69
2022/02/09 08:39:56;;;;;;;46.30;28.40;;;;;;;0.76;73.38;98263.48;110244;1244;72359;-69
2022/02/09 08:42:26;;;;;;;37.10;23.30;;;;;;;0.77;73.33;98261.23;110321;1244;69084;-68
2022/02/09 08:44:57;;;;;;;28.70;19.10;;;;;;;0.77;73.23;98263.80;110276;1244;68599;-69
2022/02/09 08:47:49;;;;;;;24.60;14.40;;;;;;;0.75;73.10;98265.73;110294;1244;60561;-68
2022/02/09 08:50:21;;;;;;;24.70;16.40;;;;;;;0.76;72.96;98274.46;110331;1244;60484;-68
2022/02/09 08:52:53;;;;;;;27.60;16.80;;;;;;;0.77;72.81;98281.80;110346;1247;72261;-69
2022/02/09 08:55:27;;;;;;;24.70;16.40;;;;;;;0.77;72.80;98282.15;110237;1247;68525;-69
2022/02/09 08:57:58;;;;;;;26.50;16.20;;;;;;;0.77;72.76;98280.09;110064;1247;69582;-68
2022/02/09 09:00:35;;;;;;;27.10;16.00;;;;;;;0.77;72.87;98281.64;110503;1244;60520;-69
2022/02/09 09:03:17;;;;;;;31.90;21.60;;;;;;;0.80;72.88;98286.75;110327;1247;60465;-68
2022/02/09 09:05:50;;;;;;;28.70;18.10;;;;;;;0.83;72.73;98288.73;110063;1247;71944;-69
2022/02/09 09:08:58;;;;;;;25.50;15.10;;;;;;;0.87;72.77;98291.75;110307;1247;67963;-68
2022/02/09 09:58:02;;;;;;;16.70;10.60;;;;;;;1.42;72.51;98283.90;110254;1247;60562;-68
2022/02/09 10:32:01;;;;;;;17.60;9.90;;;;;;;2.16;71.06;98293.33;110522;1244;71714;-69
2022/02/09 10:34:36;;;;;;;15.70;9.50;;;;;;;2.09;71.38;98298.66;110328;1246;68709;-70
2022/02/09 10:37:08;;;;;;;;;;;;;;;2.05;71.31;98304.43;110092;1243;69881;-70
2022/02/09 10:39:59;;;;;;;14.20;8.80;;;;;;;2.11;71.12;98304.96;110156;1244;60516;-69
2022/02/09 10:42:37;;;;;;;17.40;9.40;;;;;;;2.20;71.06;98303.70;110546;1244;60460;-68
2022/02/09 10:45:36;;;;;;;16.80;9.40;;;;;;;2.25;71.09;98304.98;110387;1247;71729;-70
2022/02/09 10:48:32;;;;;;;14.30;8.80;;;;;;;2.28;70.68;98309.35;110277;1245;69025;-69
2022/02/09 10:51:26;;;;;;;14.30;8.50;;;;;;;2.33;70.92;98314.23;110304;1247;68616;-69
2022/02/09 10:54:29;;;;;;;17.40;10.60;;;;;;;2.48;70.76;98311.93;110032;1247;60527;-69
2022/02/09 10:57:08;;;;;;;15.90;9.60;;;;;;;2.57;70.07;98312.38;110526;1244;60843;-71
2022/02/09 10:59:46;;;;;;;11.60;7.90;;;;;;;2.70;70.07;98317.73;110171;1245;72211;-69
2022/02/09 11:02:17;;;;;;;11.40;8.20;;;;;;;2.86;70.24;98315.75;110581;1244;67817;-69
2022/02/09 11:04:48;;;;;;;12.80;8.70;;;;;;;3.01;70.05;98315.49;110483;1246;69898;-70
2022/02/09 11:07:18;;;;;;;10.10;7.10;;;;;;;3.15;69.62;98314.40;110558;1244;60547;-70
2022/02/09 11:09:49;;;;;;;;;;;;;;;3.24;68.89;98313.98;110569;1244;60475;-70
2022/02/09 11:12:18;;;;;;;14.40;9.40;;;;;;;3.23;68.49;98316.09;110565;1244;72427;-70
2022/02/09 11:14:47;;;;;;;13.60;8.90;;;;;;;3.16;68.63;98319.74;110462;1246;68380;-70
2022/02/09 11:17:18;;;;;;;17.10;10.40;;;;;;;3.16;68.80;98326.27;110169;1247;70054;-70
2022/02/09 11:19:50;;;;;;;12.40;9.00;;;;;;;3.15;68.72;98326.14;110252;1247;60556;-70
2022/02/09 11:22:25;;;;;;;14.50;10.40;;;;;;;3.20;68.85;98324.09;110243;1247;60872;-70
2022/02/09 11:25:13;;;;;;;14.90;11.10;;;;;;;3.28;68.85;98317.48;110359;1246;70949;-70
2022/02/09 11:27:53;;;;;;;13.30;7.90;;;;;;;3.37;68.65;98314.30;110574;1247;68611;-70
2022/02/09 11:30:31;;;;;;;;;;;;;;;3.43;68.67;98314.98;110531;1244;68688;-70
2022/02/09 11:33:31;;;;;;;15.50;9.90;;;;;;;3.29;68.48;98317.98;110184;1246;60744;-69
2022/02/09 11:37:03;;;;;;;14.20;9.30;;;;;;;3.29;68.63;98312.11;110304;1247;60470;-70
2022/02/09 11:39:17;;;;;;;19.60;12.00;;;;;;;3.25;68.92;98304.81;110311;1244;72246;-70
2022/02/09 11:42:24;;;;;;;17.30;10.30;;;;;;;3.18;69.35;98300.54;110317;1247;68578;-69
2022/02/09 11:45:20;;;;;;;16.30;9.70;;;;;;;3.60;68.21;98296.54;110160;1247;68988;-70
2022/02/09 11:50:55;;;;;;;13.70;9.40;;;;;;;4.40;66.62;98287.55;109877;1250;60467;-70
2022/02/09 12:11:38;;;;;;;12.20;9.40;;;;;;;5.16;64.39;98293.67;110385;1246;67894;-69
2022/02/09 12:16:47;;;;;;;13.10;9.30;;;;;;;5.19;64.34;98297.36;110205;1247;60590;-70
2022/02/09 12:19:29;;;;;;;18.00;11.20;;;;;;;5.25;64.30;98305.10;110200;1247;60496;-70
2022/02/09 12:22:12;;;;;;;11.00;7.10;;;;;;;5.08;63.55;98295.86;109972;1249;71605;-69
2022/02/09 12:24:45;;;;;;;16.30;11.10;;;;;;;5.08;64.28;98300.36;110050;1247;68649;-69
2022/02/09 12:27:19;;;;;;;11.90;8.00;;;;;;;4.98;63.96;98302.63;110022;1247;68627;-69
2022/02/09 12:30:00;;;;;;;14.50;10.20;;;;;;;4.90;64.72;98302.57;110265;1247;60510;-70
2022/02/09 12:32:32;;;;;;;;;;;;;;;4.92;64.79;98299.93;110254;1247;60530;-69
2022/02/09 12:35:09;;;;;;;15.90;10.40;;;;;;;4.86;64.42;98299.42;110049;1250;72293;-71
2022/02/09 12:37:42;;;;;;;17.60;11.30;;;;;;;4.67;64.74;98301.30;110061;1247;69272;-70
2022/02/09 12:40:17;;;;;;;15.80;11.40;;;;;;;4.55;65.02;98296.56;110246;1247;70103;-69
2022/02/09 12:42:48;;;;;;;14.20;10.40;;;;;;;4.48;65.42;98297.83;110249;1247;60541;-68
2022/02/09 12:45:25;;;;;;;19.80;12.70;;;;;;;4.55;65.46;98306.38;110375;1247;60517;-70
2022/02/09 12:48:00;;;;;;;19.00;11.90;;;;;;;4.57;65.54;98300.08;110231;1247;71918;-69
2022/02/09 12:50:40;;;;;;;10.30;7.80;;;;;;;4.62;65.67;98294.56;110149;1247;68923;-70
2022/02/09 12:53:10;;;;;;;20.10;14.00;;;;;;;4.74;65.44;98296.41;110342;1247;67668;-71
2022/02/09 12:55:42;;;;;;;19.60;12.70;;;;;;;4.71;65.00;98298.56;110432;1246;60554;-70
2022/02/09 12:58:15;;;;;;;26.60;12.90;;;;;;;4.71;65.04;98302.21;110037;1247;60487;-70
2022/02/09 13:00:48;;;;;;;17.80;12.80;;;;;;;4.66;65.18;98300.14;110137;1246;72193;-70
2022/02/09 13:03:21;;;;;;;17.40;12.30;;;;;;;4.72;65.47;98300.08;110155;1247;68586;-69
2022/02/09 13:05:56;;;;;;;19.40;12.40;;;;;;;4.71;65.28;98302.53;110245;1246;68726;-69
2022/02/09 13:08:27;;;;;;;16.30;11.40;;;;;;;4.64;65.49;98301.58;110402;1246;60459;-69
2022/02/09 13:11:18;;;;;;;14.70;10.40;;;;;;;4.61;65.62;98299.79;110443;1246;60480;-69
2022/02/09 13:13:55;;;;;;;15.20;11.20;;;;;;;4.66;65.63;98303.05;110368;1247;72868;-69
2022/02/09 13:16:37;;;;;;;12.30;9.30;;;;;;;4.63;65.77;98296.80;110315;1247;67915;-69
2022/02/09 14:10:27;;;;;;;23.30;15.20;;;;;;;4.43;65.07;98317.67;110328;1245;60531;-70
2022/02/09 14:16:35;;;;;;;22.00;14.90;;;;;;;4.28;65.03;98318.36;110525;1244;69508;-69
2022/02/09 14:57:35;;;;;;;30.10;21.80;;;;;;;3.24;68.28;98346.02;109522;1257;57583;-69
2022/02/09 15:00:19;;;;;;;22.30;17.30;;;;;;;3.09;68.51;98352.64;109299;1256;57690;-75
2022/02/09 15:03:19;;;;;;;23.90;17.30;;;;;;;3.06;68.77;98362.39;109442;1254;69261;-74
2022/02/09 15:11:35;;;;;;;24.40;17.70;;;;;;;2.74;70.39;98365.30;109452;1255;58141;-71
2022/02/09 15:23:02;;;;;;;34.10;21.40;;;;;;;2.52;71.72;98365.17;109199;1258;68649;-66
2022/02/09 15:25:45;;;;;;;29.60;19.50;;;;;;;2.45;72.17;98363.81;108946;1260;58161;-70
2022/02/09 15:28:21;;;;;;;35.60;21.60;;;;;;;2.41;72.62;98368.05;109199;1260;58106;-71
2022/02/09 15:32:05;;;;;;;29.60;20.80;;;;;;;2.36;72.43;98366.44;108942;1257;70049;-69
2022/02/09 15:34:22;;;;;;;27.50;19.00;;;;;;;2.36;71.71;98361.45;109346;1257;69125;-76
2022/02/09 15:39:47;;;;;;;38.70;25.10;;;;;;;2.29;72.77;98360.44;109634;1257;58155;-74
2022/02/09 16:23:39;;;;;;;30.90;23.00;;;;;;;2.05;73.13;98391.27;109703;1254;58117;-67
2022/02/09 16:33:13;;;;;;;25.80;15.90;;;;;;;2.07;73.17;98393.80;109795;1251;58088;-74
2022/02/09 16:46:12;;;;;;;22.90;13.90;;;;;;;1.99;74.22;98410.31;110186;1248;67808;-72
2022/02/09 16:48:31;;;;;;;26.90;17.80;;;;;;;1.98;73.53;98401.36;109896;1251;68065;-72
2022/02/09 16:51:03;;;;;;;33.70;22.10;;;;;;;1.98;74.29;98407.23;110139;1247;58090;-74
2022/02/09 16:53:48;;;;;;;37.90;23.20;;;;;;;1.95;74.76;98409.52;110151;1248;58020;-73
2022/02/09 17:15:43;;;;;;;29.50;17.60;;;;;;;2.12;74.55;98409.85;110033;1250;68711;-71
2022/02/09 17:20:59;;;;;;;20.80;14.70;;;;;;;2.23;73.91;98407.52;110082;1248;58032;-72
2022/02/09 17:23:28;;;;;;;20.40;13.00;;;;;;;2.32;73.48;98411.23;110178;1247;69378;-69
2022/02/09 17:26:00;;;;;;;29.90;18.40;;;;;;;2.37;73.77;98410.80;110129;1247;68729;-68
2022/02/09 17:28:29;;;;;;;29.90;18.90;;;;;;;2.36;74.12;98416.16;109992;1247;68634;-66
2022/02/09 17:33:45;;;;;;;20.20;16.30;;;;;;;2.37;73.31;98415.81;110191;1247;58085;-72
2022/02/09 17:36:22;;;;;;;22.40;14.50;;;;;;;2.33;73.53;98415.72;109932;1248;70356;-67
2022/02/09 17:39:01;;;;;;;25.30;17.60;;;;;;;2.28;73.46;98413.94;109858;1248;67852;-65
2022/02/09 17:53:24;;;;;;;28.00;17.80;;;;;;;2.21;73.61;98410.66;109959;1248;58124;-68
2022/02/09 17:58:40;;;;;;;23.60;15.80;;;;;;;2.13;73.62;98427.02;109961;1248;58085;-65
2022/02/09 18:01:08;;;;;;;27.60;16.80;;;;;;;2.10;73.94;98430.02;109973;1248;58227;-67
2022/02/09 18:03:39;;;;;;;26.00;16.80;;;;;;;2.06;74.42;98428.91;109873;1249;70018;-73
2022/02/09 18:09:01;;;;;;;21.00;13.10;;;;;;;2.01;75.00;98433.48;109950;1248;69467;-74
2022/02/09 18:31:17;;;;;;;38.00;26.30;;;;;;;1.97;74.99;98432.17;110130;1247;69200;-69
2022/02/09 18:34:47;;;;;;;56.00;37.40;;;;;;;1.98;73.91;98433.87;109876;1249;68606;-70
2022/02/09 18:45:33;;;;;;;49.60;30.70;;;;;;;1.81;75.84;98445.24;110149;1248;69396;-72
2022/02/09 19:08:08;;;;;;;28.20;19.80;;;;;;;1.80;75.31;98457.30;110135;1247;58516;-68
2022/02/09 19:18:39;;;;;;;42.80;26.20;;;;;;;1.81;75.88;98450.58;109899;1248;68841;-67
2022/02/09 19:26:19;;;;;;;32.10;19.50;;;;;;;1.78;76.68;98450.46;110190;1247;59020;-72
2022/02/09 19:26:52;;;;;;;36.00;21.40;;;;;;;1.76;77.29;98453.27;109932;1248;71221;-67
2022/02/09 19:46:12;;;;;;;41.40;26.30;;;;;;;1.71;78.21;98455.43;109885;1250;68459;-71
2022/02/09 19:48:45;;;;;;;38.00;24.10;;;;;;;1.70;78.40;98460.27;109840;1250;59408;-66
2022/02/09 19:56:21;;;;;;;35.50;23.90;;;;;;;1.69;77.47;98448.41;110041;1250;67793;-71
2022/02/09 19:59:00;;;;;;;34.50;22.90;;;;;;;1.66;78.30;98450.04;110098;1247;69515;-73
2022/02/09 20:01:36;;;;;;;32.40;21.00;;;;;;;1.64;78.50;98450.08;109911;1250;58919;-72
2022/02/09 20:04:07;;;;;;;24.70;18.10;;;;;;;1.63;77.87;98449.42;109882;1250;58933;-72
2022/02/09 20:06:36;;;;;;;23.20;14.60;;;;;;;1.62;77.11;98442.38;109913;1250;71013;-72
2022/02/09 20:09:05;;;;;;;26.60;16.60;;;;;;;1.62;76.44;98441.69;109919;1249;68705;-71
2022/02/09 20:11:37;;;;;;;34.70;21.10;;;;;;;1.60;77.52;98443.46;110075;1250;68628;-72
2022/02/09 20:14:07;;;;;;;29.10;19.50;;;;;;;1.55;77.64;98443.90;109936;1249;58939;-68
2022/02/09 20:16:36;;;;;;;29.60;17.00;;;;;;;1.56;77.05;98445.61;110071;1250;58896;-66
2022/02/09 20:19:05;;;;;;;27.70;18.70;;;;;;;1.55;76.24;98448.36;109971;1248;70201;-67
2022/02/09 20:21:34;;;;;;;27.20;17.40;;;;;;;1.54;76.02;98443.40;109800;1248;67852;-71
2022/02/09 20:24:05;;;;;;;33.40;23.30;;;;;;;1.51;75.94;98444.64;109705;1251;69474;-71
2022/02/09 20:26:34;;;;;;;39.70;26.30;;;;;;;1.48;76.08;98443.17;110094;1249;58876;-72
2022/02/09 20:29:09;;;;;;;56.30;35.10;;;;;;;1.44;77.87;98444.81;110048;1250;58941;-73
2022/02/09 20:32:11;;;;;;;51.10;32.70;;;;;;;1.33;80.08;98445.73;109975;1250;71415;-72
2022/02/09 20:34:35;;;;;;;46.40;29.90;;;;;;;1.27;80.70;98446.85;110118;1250;68599;-71
2022/02/09 20:37:06;;;;;;;45.30;28.60;;;;;;;1.22;80.93;98447.81;109896;1250;69464;-72
2022/02/09 20:39:43;;;;;;;41.20;25.60;;;;;;;1.18;81.07;98446.33;110076;1248;58874;-71
2022/02/09 20:42:16;;;;;;;42.20;27.20;;;;;;;1.18;81.21;98443.95;110104;1247;58886;-67
2022/02/09 20:44:53;;;;;;;29.70;18.60;;;;;;;1.17;80.89;98443.79;110042;1247;70762;-66
2022/02/09 20:47:22;;;;;;;33.90;21.40;;;;;;;1.23;79.04;98438.34;110110;1250;68484;-65
2022/02/09 20:49:51;;;;;;;43.40;26.50;;;;;;;1.28;78.88;98432.92;110024;1248;69585;-66
2022/02/09 20:52:20;;;;;;;51.60;31.00;;;;;;;1.29;78.57;98428.61;110169;1247;58792;-67
2022/02/09 20:54:49;;;;;;;39.80;23.20;;;;;;;1.26;78.41;98429.36;110186;1247;58926;-65
2022/02/09 20:57:18;;;;;;;39.40;25.20;;;;;;;1.25;78.35;98429.89;109995;1247;69216;-66
2022/02/09 20:59:51;;;;;;;65.70;40.50;;;;;;;1.22;78.98;98430.46;109972;1247;67752;-72
2022/02/09 21:03:20;;;;;;;52.00;29.60;;;;;;;1.16;79.83;98432.12;110172;1247;69446;-72
2022/02/09 21:05:39;;;;;;;55.00;33.40;;;;;;;1.14;78.84;98435.08;109837;1251;58996;-67
2022/02/09 21:10:56;;;;;;;54.80;34.40;;;;;;;1.08;80.23;98435.89;110121;1248;71129;-73
2022/02/09 21:16:20;;;;;;;71.50;43.80;;;;;;;1.08;79.91;98433.82;110011;1248;69843;-69
2022/02/09 21:21:51;;;;;;;53.90;35.80;;;;;;;1.01;80.80;98428.79;110055;1248;58981;-74
2022/02/09 21:57:01;;;;;;;41.20;28.00;;;;;;;0.82;80.89;98438.40;109999;1247;68679;-75
2022/02/09 22:26:49;;;;;;;33.80;19.30;;;;;;;-0.19;83.95;98437.23;109880;1248;59376;-72
2022/02/09 22:32:04;;;;;;;30.60;20.40;;;;;;;-0.27;81.69;98428.76;109959;1249;70699;-71
2022/02/09 22:45:59;;;;;;;37.50;22.40;;;;;;;-0.25;83.96;98427.71;109940;1248;70771;-65
2022/02/09 22:48:48;;;;;;;33.80;20.60;;;;;;;-0.30;83.37;98423.48;109985;1250;66849;-67
2022/02/09 22:56:42;;;;;;;63.30;37.60;;;;;;;-0.50;84.30;98426.48;109931;1247;58884;-72
2022/02/09 22:59:20;;;;;;;63.40;37.70;;;;;;;-0.63;85.93;98423.73;110157;1247;70780;-72
2022/02/09 23:01:57;;;;;;;58.00;33.40;;;;;;;-0.70;86.15;98419.37;110033;1248;68570;-74
2022/02/09 23:04:54;;;;;;;52.90;30.20;;;;;;;-0.76;86.37;98416.69;109963;1248;69521;-73
2022/02/09 23:13:17;;;;;;;43.60;25.90;;;;;;;-0.79;87.70;98414.67;110133;1247;70770;-73
2022/02/09 23:18:36;;;;;;;46.40;27.30;;;;;;;-0.67;87.31;98417.79;109959;1247;69346;-73
2022/02/09 23:23:58;;;;;;;29.20;18.70;;;;;;;-0.51;86.35;98417.08;110137;1247;58937;-72
2022/02/09 23:27:41;;;;;;;28.80;16.80;;;;;;;-0.42;84.56;98412.52;109894;1248;70765;-73
